createdAt,value
2023-03-18T00:01:24.871Z,25.5
2023-03-18T00:07:18.169Z,24.9
2023-03-18T00:12:55.752Z,24.3
2023-03-18T00:17:46.145Z,23.9
2023-03-18T00:23:08.103Z,23.6
2023-03-18T00:29:00.468Z,23.4
2023-03-18T00:34:37.469Z,29.1
2023-03-18T00:40:31.062Z,32.4
2023-03-18T00:46:25.140Z,31.1
2023-03-18T00:51:46.292Z,28.6
2023-03-18T00:57:24.359Z,26.6
2023-03-18T01:03:18.316Z,25.4
2023-03-18T01:08:55.309Z,24.7
2023-03-18T01:14:36.221Z,24.1
2023-03-18T01:20:29.177Z,23.8
2023-03-18T01:25:50.848Z,28.6
2023-03-18T01:31:27.975Z,31.9
2023-03-18T01:37:20.982Z,31.8
2023-03-18T01:43:12.523Z,30.5
2023-03-18T01:48:50.258Z,26.9
2023-03-18T01:54:12.496Z,26.1
2023-03-18T02:00:04.784Z,24.8
2023-03-18T02:05:59.030Z,24.4
2023-03-18T02:11:51.408Z,23.7
2023-03-18T02:17:28.640Z,24.1
2023-03-18T02:22:50.328Z,30.5
2023-03-18T02:28:28.815Z,32.4
2023-03-18T02:34:21.080Z,31.3
2023-03-18T02:40:14.709Z,30.3
2023-03-18T02:46:07.579Z,26.4
2023-03-18T02:51:59.199Z,25.3
2023-03-18T02:57:51.940Z,24.4
2023-03-18T03:02:59.414Z,23.8
2023-03-18T03:08:36.758Z,23.5
2023-03-18T03:14:13.966Z,27.6
2023-03-18T03:19:51.066Z,31.2
2023-03-18T03:25:44.254Z,32.6
2023-03-18T03:31:36.741Z,31.1
2023-03-18T03:36:58.571Z,28.8
2023-03-18T03:42:51.290Z,26.3
2023-03-18T03:48:44.590Z,25.1
2023-03-18T03:54:22.438Z,24.4
2023-03-18T03:59:59.225Z,23.8
2023-03-18T04:05:21.216Z,23.4
2023-03-18T04:10:58.656Z,28.9
2023-03-18T04:16:51.979Z,26
2023-03-18T04:22:14.605Z,26.4
2023-03-18T04:27:50.974Z,31.3
2023-03-18T04:33:43.950Z,32.9
2023-03-18T04:39:36.650Z,31.3
2023-03-18T04:45:29.998Z,28.4
2023-03-18T04:51:23.282Z,26.2
2023-03-18T04:57:00.823Z,24.9
2023-03-18T05:02:41.865Z,24.3
2023-03-18T05:08:34.261Z,23.6
2023-03-18T05:14:26.748Z,23.5
2023-03-18T05:19:48.332Z,30.4
2023-03-18T05:25:40.424Z,32.1
2023-03-18T05:31:33.901Z,32.1
2023-03-18T05:37:28.393Z,30.9
2023-03-18T05:43:29.109Z,27.4
2023-03-18T05:49:21.614Z,26.1
2023-03-18T05:55:15.024Z,24.6
2023-03-18T06:00:37.797Z,24.2
2023-03-18T06:06:16.371Z,23.5
2023-03-18T06:12:11.150Z,26.4
2023-03-18T06:18:04.184Z,30.8
2023-03-18T06:23:42.461Z,32.3
2023-03-18T06:29:35.363Z,32.1
2023-03-18T06:35:29.257Z,30.8
2023-03-18T06:41:21.448Z,27.4
2023-03-18T06:47:17.071Z,26.2
2023-03-18T06:53:09.240Z,24.7
2023-03-18T06:59:01.530Z,24.2
2023-03-18T07:04:39.150Z,23.6
2023-03-18T07:10:32.038Z,26.8
2023-03-18T07:16:24.607Z,30.5
2023-03-18T07:27:43.797Z,20.1
2023-03-18T07:33:40.541Z,30.1
2023-03-18T07:39:33.933Z,32.9
2023-03-18T07:45:28.642Z,31.6
2023-03-18T07:51:21.719Z,30.1
2023-03-18T07:57:15.134Z,26.1
2023-03-18T08:03:12.509Z,24.9
2023-03-18T08:08:51.463Z,24.3
2023-03-18T08:15:04.405Z,27.5
2023-03-18T08:20:57.617Z,32.3
2023-03-18T08:26:50.333Z,32.7
2023-03-18T08:32:44.554Z,31.1
2023-03-18T08:38:39.454Z,30
2023-03-18T08:44:16.124Z,29
2023-03-18T08:55:46.536Z,31.6
2023-03-18T09:01:23.894Z,33.1
2023-03-18T09:06:46.419Z,31.3
2023-03-18T09:12:45.763Z,30.3
2023-03-18T09:19:05.167Z,29.3
2023-03-18T09:24:57.797Z,31
2023-03-18T09:30:50.296Z,33.8
2023-03-18T09:36:43.601Z,31.4
2023-03-18T09:42:37.452Z,30.3
2023-03-18T09:48:30.073Z,29.2
2023-03-18T09:54:22.955Z,32.6
2023-03-18T10:00:00.248Z,32.5
2023-03-18T10:05:52.815Z,30.9
2023-03-18T10:11:29.759Z,29.9
2023-03-18T10:17:07.380Z,30.2
2023-03-18T10:23:00.914Z,33.9
2023-03-18T10:29:04.936Z,31.6
2023-03-18T10:35:15.839Z,30.4
2023-03-18T10:40:54.476Z,29.3
2023-03-18T10:46:46.677Z,32.3
2023-03-18T10:52:39.684Z,32.8
2023-03-18T10:58:31.916Z,30.8
2023-03-18T11:04:24.896Z,29.8
2023-03-18T11:10:18.102Z,28.1
2023-03-18T11:16:11.832Z,33.1
2023-03-18T11:22:04.631Z,31.6
2023-03-18T11:27:57.646Z,30.1
2023-03-18T11:34:00.552Z,29.1
2023-03-18T11:39:58.938Z,30.6
2023-03-18T11:45:52.239Z,33.3
2023-03-18T11:51:29.669Z,31.1
2023-03-18T11:56:51.578Z,30.1
2023-03-18T12:02:14.976Z,29.2
2023-03-18T12:07:38.128Z,32.3
2023-03-18T12:13:32.053Z,32.9
2023-03-18T12:19:26.899Z,30.9
2023-03-18T12:25:04.096Z,29.8
2023-03-18T12:30:26.463Z,28.1
2023-03-18T12:36:06.013Z,33.1
2023-03-18T12:41:59.736Z,32
2023-03-18T12:47:53.861Z,30.6
2023-03-18T12:53:41.635Z,29.6
2023-03-18T12:59:35.356Z,29.3
2023-03-18T13:05:18.435Z,33.9
2023-03-18T13:10:56.200Z,31.5
2023-03-18T13:16:52.379Z,30.3
2023-03-18T13:22:30.691Z,29.3
2023-03-18T13:28:24.441Z,30.9
2023-03-18T13:34:18.045Z,33.2
2023-03-18T13:40:12.641Z,31
2023-03-18T13:46:06.145Z,29.8
2023-03-18T13:51:44.355Z,28.8
2023-03-18T13:57:36.741Z,31.6
2023-03-18T14:03:31.261Z,32.8
2023-03-18T14:09:24.533Z,30.8
2023-03-18T14:15:34.045Z,29.8
2023-03-18T14:21:15.014Z,28.7
2023-03-18T14:26:38.569Z,27.9
2023-03-18T14:32:00.526Z,27
2023-03-18T14:37:38.308Z,26.3
2023-03-18T14:43:33.946Z,25.8
2023-03-18T14:49:19.578Z,25.1
2023-03-18T14:54:56.566Z,24.7
2023-03-18T15:00:48.788Z,24.3
2023-03-18T15:06:41.699Z,24
2023-03-18T15:12:32.625Z,23.7
2023-03-18T15:18:09.615Z,23.4
2023-03-18T15:24:02.740Z,23.3
2023-03-18T15:29:39.991Z,23.1
2023-03-18T15:35:33.549Z,23
2023-03-18T15:41:26.240Z,22.9
2023-03-18T15:47:04.143Z,22.8
2023-03-18T15:52:56.661Z,22.6
2023-03-18T15:58:34.957Z,22.5
2023-03-18T16:04:27.263Z,22.4
2023-03-18T16:10:19.956Z,22.3
2023-03-18T16:15:57.507Z,22.2
2023-03-18T16:21:50.767Z,22.1
2023-03-18T16:27:43.929Z,22
2023-03-18T16:33:36.288Z,21.9
2023-03-18T16:39:14.595Z,21.8
2023-03-18T16:44:51.565Z,21.8
2023-03-18T16:50:29.254Z,21.7
2023-03-18T16:56:22.146Z,27.5
2023-03-18T17:01:59.084Z,33.9
2023-03-18T17:07:37.154Z,37
2023-03-18T17:13:30.265Z,38
2023-03-18T17:19:09.651Z,38.9
2023-03-18T17:25:01.575Z,38
2023-03-18T17:30:39.606Z,36.8
2023-03-18T17:36:35.022Z,37.1
2023-03-18T17:42:12.472Z,36.6
2023-03-18T17:47:50.722Z,36
2023-03-18T17:53:42.957Z,36.3
2023-03-18T17:59:19.975Z,35.6
2023-03-18T18:05:13.817Z,38.6
2023-03-18T18:10:34.938Z,38.8
2023-03-18T18:16:11.852Z,38
2023-03-18T18:22:08.432Z,38.6
2023-03-18T18:27:46.864Z,37.2
2023-03-18T18:33:12.262Z,38.4
2023-03-18T18:38:50.324Z,37.1
2023-03-18T18:44:42.949Z,38.4
2023-03-18T18:50:04.991Z,37.8
2023-03-18T18:55:58.823Z,39.5
2023-03-18T19:01:52.273Z,38.6
2023-03-18T19:07:30.354Z,39.1
2023-03-18T19:13:24.624Z,39.7
2023-03-18T19:19:02.104Z,39.8
2023-03-18T19:24:54.442Z,39.3
2023-03-18T19:30:39.718Z,38.1
2023-03-18T19:36:32.401Z,38.7
2023-03-18T19:42:10.278Z,37.4
2023-03-18T19:47:49.586Z,37
2023-03-18T19:53:45.080Z,37.1
2023-03-18T19:59:39.414Z,36.2
2023-03-18T20:05:34.353Z,35.8
2023-03-18T20:11:27.053Z,37.3
2023-03-18T20:17:19.804Z,36.1
2023-03-18T20:23:13.041Z,34.8
2023-03-18T20:28:49.868Z,34.2
2023-03-18T20:34:12.935Z,33.7
2023-03-18T20:39:35.009Z,32.9
2023-03-18T20:44:41.495Z,31.9
2023-03-18T20:50:19.375Z,31.1
2023-03-18T20:56:12.142Z,30.4
2023-03-18T21:01:49.610Z,29.9
2023-03-18T21:07:43.179Z,29.4
2023-03-18T21:13:21.207Z,29.1
2023-03-18T21:19:14.748Z,28.8
2023-03-18T21:25:20.082Z,27.5
2023-03-18T21:31:31.213Z,26.7
2023-03-18T21:37:09.163Z,26.1
2023-03-18T21:43:01.935Z,25.6
2023-03-18T21:48:42.559Z,25.3
2023-03-18T21:54:46.829Z,24.8
2023-03-18T22:00:39.426Z,24.4
2023-03-18T22:06:32.918Z,24
2023-03-18T22:12:08.971Z,23.8
2023-03-18T22:17:31.140Z,23.6
2023-03-18T22:23:24.649Z,23.3
2023-03-18T22:28:31.140Z,23.2
2023-03-18T22:34:09.123Z,23.1
2023-03-18T22:40:02.703Z,23
2023-03-18T22:45:57.303Z,27.4
2023-03-18T22:51:34.232Z,32.4
2023-03-18T22:57:13.868Z,30.8
2023-03-18T23:03:06.973Z,28.3
2023-03-18T23:08:29.140Z,26.6
2023-03-18T23:14:36.475Z,25.4
2023-03-18T23:20:30.226Z,24.9
2023-03-18T23:26:22.977Z,24.2
2023-03-18T23:32:20.528Z,23.9
2023-03-18T23:37:27.559Z,23.4
2023-03-18T23:43:20.592Z,23.3
2023-03-18T23:49:15.779Z,30.4
2023-03-18T23:55:22.497Z,32.1
